Time;durP1;ratioP1;P1;durP2;ratioP2;P2;SDS_P1;SDS_P2;PMS_P1;PMS_P2;Temp;Humidity;BMP_temperature;BMP_pressure;BME280_temperature;BME280_humidity;BME280_pressure;Samples;Min_cycle;Max_cycle;Signal;HPM_P1;HPM_P2
2023/12/15 00:00:24;;;;;;;60.40;40.92;;;;;;;;;;5013877;28;20022;-56
2023/12/15 00:02:50;;;;;;;61.58;41.90;;;;;;;;;;5003607;28;20021;-57
2023/12/15 00:05:16;;;;;;;60.90;41.50;;;;;;;;;;5014007;28;20069;-57
2023/12/15 00:07:42;;;;;;;61.85;41.80;;;;;;;;;;5013863;28;20025;-57
2023/12/15 00:10:08;;;;;;;58.25;40.75;;;;;;;;;;5013698;28;20018;-56
2023/12/15 00:12:34;;;;;;;59.78;40.83;;;;;;;;;;5013835;28;20215;-57
2023/12/15 00:15:00;;;;;;;61.70;41.70;;;;;;;;;;5026971;28;20043;-56
2023/12/15 00:17:27;;;;;;;63.28;42.15;;;;;;;;;;5013672;28;20052;-56
2023/12/15 00:19:53;;;;;;;62.40;42.72;;;;;;;;;;5013710;28;20143;-57
2023/12/15 00:22:18;;;;;;;60.53;42.38;;;;;;;;;;5013417;28;20030;-56
2023/12/15 00:24:44;;;;;;;63.20;43.05;;;;;;;;;;5012006;28;20034;-55
2023/12/15 00:27:10;;;;;;;62.38;41.50;;;;;;;;;;5012033;28;20018;-56
2023/12/15 00:29:36;;;;;;;60.80;43.40;;;;;;;;;;5016817;28;20029;-55
2023/12/15 00:32:02;;;;;;;63.65;41.90;;;;;;;;;;5030364;28;20471;-55
2023/12/15 00:34:28;;;;;;;63.90;42.25;;;;;;;;;;5019079;28;20100;-52
2023/12/15 00:36:55;;;;;;;64.80;42.70;;;;;;;;;;5024689;28;20061;-52
2023/12/15 00:39:21;;;;;;;65.47;43.05;;;;;;;;;;5013085;28;20018;-55
2023/12/15 00:41:47;;;;;;;64.30;43.88;;;;;;;;;;5011867;28;20049;-55
2023/12/15 00:44:13;;;;;;;64.90;43.42;;;;;;;;;;5023836;28;20057;-54
2023/12/15 00:46:39;;;;;;;61.13;41.95;;;;;;;;;;5032725;28;20045;-54
2023/12/15 00:49:05;;;;;;;59.38;42.70;;;;;;;;;;5022906;28;20439;-55
2023/12/15 00:51:30;;;;;;;65.95;44.50;;;;;;;;;;5011482;28;20029;-54
2023/12/15 00:53:56;;;;;;;65.70;43.63;;;;;;;;;;5012887;28;20419;-53
2023/12/15 00:56:22;;;;;;;67.57;44.53;;;;;;;;;;5012760;28;20105;-53
2023/12/15 00:58:48;;;;;;;74.82;45.75;;;;;;;;;;5011463;28;20045;-56
2023/12/15 01:01:14;;;;;;;63.15;43.60;;;;;;;;;;5024694;28;20435;-56
2023/12/15 01:03:40;;;;;;;66.90;44.50;;;;;;;;;;5032535;28;20104;-52
2023/12/15 01:06:07;;;;;;;71.68;45.47;;;;;;;;;;5022608;28;20033;-53
2023/12/15 01:08:33;;;;;;;65.32;43.88;;;;;;;;;;5012685;28;20468;-55
2023/12/15 01:10:59;;;;;;;70.03;43.33;;;;;;;;;;5010173;28;20033;-57
2023/12/15 01:13:25;;;;;;;66.18;42.85;;;;;;;;;;5010522;28;20530;-56
2023/12/15 01:15:51;;;;;;;62.28;42.63;;;;;;;;;;5011889;28;20057;-56
2023/12/15 01:18:17;;;;;;;62.67;42.67;;;;;;;;;;5012646;28;20029;-56
2023/12/15 01:20:43;;;;;;;62.17;40.50;;;;;;;;;;5009878;28;20022;-56
2023/12/15 01:23:09;;;;;;;64.88;41.58;;;;;;;;;;5013802;28;20021;-58
2023/12/15 01:25:35;;;;;;;62.38;40.53;;;;;;;;;;5016304;28;20073;-56
2023/12/15 01:28:01;;;;;;;58.55;39.92;;;;;;;;;;5012475;28;20032;-56
2023/12/15 01:30:27;;;;;;;55.25;37.83;;;;;;;;;;5012230;28;20025;-56
2023/12/15 01:32:53;;;;;;;50.15;34.85;;;;;;;;;;5024816;28;20046;-55
2023/12/15 01:35:19;;;;;;;45.35;31.55;;;;;;;;;;5012178;28;20026;-54
2023/12/15 01:37:45;;;;;;;43.25;30.80;;;;;;;;;;5011101;28;20030;-54
2023/12/15 01:40:11;;;;;;;49.38;31.70;;;;;;;;;;5010960;28;20046;-56
2023/12/15 01:42:37;;;;;;;46.05;32.83;;;;;;;;;;5012480;28;20031;-55
2023/12/15 01:45:03;;;;;;;50.42;34.22;;;;;;;;;;5026187;28;20414;-52
2023/12/15 01:47:29;;;;;;;50.13;33.97;;;;;;;;;;5012262;28;20032;-57
2023/12/15 01:49:55;;;;;;;51.80;35.33;;;;;;;;;;5012328;28;20480;-53
2023/12/15 01:52:21;;;;;;;51.15;35.20;;;;;;;;;;5012223;28;20052;-54
2023/12/15 01:54:47;;;;;;;49.45;33.72;;;;;;;;;;5009761;28;20106;-56
2023/12/15 01:57:15;;;;;;;49.33;32.92;;;;;;;;;;5008809;28;20034;-57
2023/12/15 01:59:42;;;;;;;50.38;32.08;;;;;;;;;;5011833;28;20018;-56
2023/12/15 02:02:08;;;;;;;44.08;30.83;;;;;;;;;;5011860;28;20403;-53
2023/12/15 02:04:33;;;;;;;47.15;32.50;;;;;;;;;;5011886;28;20038;-56
2023/12/15 02:06:59;;;;;;;48.07;31.93;;;;;;;;;;5011802;28;20415;-56
2023/12/15 02:09:25;;;;;;;48.90;32.88;;;;;;;;;;5013874;28;20040;-56
2023/12/15 02:11:51;;;;;;;46.33;32.65;;;;;;;;;;5007344;28;20060;-55
2023/12/15 02:14:17;;;;;;;49.33;32.88;;;;;;;;;;5006471;28;20111;-54
2023/12/15 02:16:43;;;;;;;50.53;33.75;;;;;;;;;;5011518;28;20030;-53
2023/12/15 02:19:10;;;;;;;53.45;33.22;;;;;;;;;;5007172;28;20392;-54
2023/12/15 02:21:35;;;;;;;51.65;35.67;;;;;;;;;;5010844;28;20452;-51
2023/12/15 02:24:01;;;;;;;48.80;35.33;;;;;;;;;;5010894;28;20053;-54
2023/12/15 02:26:27;;;;;;;52.15;35.50;;;;;;;;;;5010776;28;20052;-56
2023/12/15 02:28:53;;;;;;;54.55;36.47;;;;;;;;;;5007051;28;20045;-56
2023/12/15 02:31:21;;;;;;;58.05;38.60;;;;;;;;;;5007233;28;20026;-54
2023/12/15 02:33:47;;;;;;;55.70;36.20;;;;;;;;;;5008822;28;20052;-56
2023/12/15 02:36:20;;;;;;;56.60;37.35;;;;;;;;;;5008706;28;20029;-55
2023/12/15 02:38:46;;;;;;;54.28;36.83;;;;;;;;;;5014239;28;20037;-54
2023/12/15 02:41:12;;;;;;;56.50;37.20;;;;;;;;;;5013414;28;20104;-55
2023/12/15 02:43:38;;;;;;;55.13;36.08;;;;;;;;;;5019277;28;20017;-55
2023/12/15 02:46:05;;;;;;;53.80;35.65;;;;;;;;;;5018223;28;20097;-56
2023/12/15 02:48:31;;;;;;;51.90;35.38;;;;;;;;;;5013383;28;20030;-54
2023/12/15 02:50:57;;;;;;;56.85;36.15;;;;;;;;;;5013447;28;20484;-55
2023/12/15 02:53:22;;;;;;;55.42;35.03;;;;;;;;;;5013052;28;20030;-55
2023/12/15 02:55:49;;;;;;;54.00;35.08;;;;;;;;;;5012429;28;20377;-54
2023/12/15 02:58:15;;;;;;;52.83;36.28;;;;;;;;;;5012403;28;20062;-56
2023/12/15 03:00:41;;;;;;;52.80;35.75;;;;;;;;;;5013571;28;20029;-55
2023/12/15 03:03:07;;;;;;;47.15;32.40;;;;;;;;;;5008997;28;20034;-57
2023/12/15 03:05:33;;;;;;;42.22;31.85;;;;;;;;;;5011947;28;20138;-57
2023/12/15 03:07:59;;;;;;;48.17;32.40;;;;;;;;;;5012593;28;20489;-52
2023/12/15 03:10:25;;;;;;;43.95;29.85;;;;;;;;;;5014214;28;20037;-53
2023/12/15 03:12:51;;;;;;;44.20;29.98;;;;;;;;;;5014461;28;20076;-55
2023/12/15 03:15:17;;;;;;;46.78;29.83;;;;;;;;;;5014230;28;20053;-55
2023/12/15 03:17:43;;;;;;;46.67;30.90;;;;;;;;;;5014158;28;20026;-53
2023/12/15 03:20:09;;;;;;;43.42;28.30;;;;;;;;;;5008478;28;20026;-55
2023/12/15 03:22:35;;;;;;;39.60;27.17;;;;;;;;;;5012177;28;20375;-54
2023/12/15 03:25:01;;;;;;;38.88;26.40;;;;;;;;;;5013684;28;20045;-56
2023/12/15 03:27:27;;;;;;;38.22;27.25;;;;;;;;;;5013720;28;20054;-55
2023/12/15 03:29:53;;;;;;;38.25;27.80;;;;;;;;;;5013894;28;20099;-56
2023/12/15 03:32:19;;;;;;;40.78;25.95;;;;;;;;;;5013873;28;20030;-56
2023/12/15 03:34:45;;;;;;;38.90;27.77;;;;;;;;;;5013707;28;20414;-56
2023/12/15 03:37:11;;;;;;;39.40;26.95;;;;;;;;;;5007079;28;20038;-56
2023/12/15 03:39:37;;;;;;;40.85;26.88;;;;;;;;;;5008045;28;20208;-54
2023/12/15 03:42:06;;;;;;;42.47;27.52;;;;;;;;;;5014018;28;20025;-56
2023/12/15 03:44:32;;;;;;;39.47;25.42;;;;;;;;;;5014260;28;20061;-57
2023/12/15 03:46:58;;;;;;;38.05;26.73;;;;;;;;;;5013768;28;20496;-55
2023/12/15 03:49:24;;;;;;;41.13;27.13;;;;;;;;;;5012857;28;20030;-56
2023/12/15 03:51:50;;;;;;;39.85;27.27;;;;;;;;;;5012378;28;20426;-55
2023/12/15 03:54:16;;;;;;;39.97;26.20;;;;;;;;;;5007268;28;20058;-56
2023/12/15 03:56:42;;;;;;;36.17;24.52;;;;;;;;;;5002070;28;20027;-56
2023/12/15 03:59:08;;;;;;;38.22;25.00;;;;;;;;;;5012049;28;20084;-56
2023/12/15 04:01:34;;;;;;;36.15;23.55;;;;;;;;;;5013525;28;20037;-55
2023/12/15 04:04:00;;;;;;;37.03;24.88;;;;;;;;;;5012197;28;20042;-57
2023/12/15 04:06:26;;;;;;;34.70;24.42;;;;;;;;;;5013317;28;20030;-55
2023/12/15 04:08:52;;;;;;;38.72;25.17;;;;;;;;;;5013796;28;20026;-56
2023/12/15 04:11:18;;;;;;;34.85;24.95;;;;;;;;;;5007586;28;20042;-56
2023/12/15 04:13:45;;;;;;;35.03;23.98;;;;;;;;;;5013710;28;20029;-53
2023/12/15 04:16:11;;;;;;;33.50;23.63;;;;;;;;;;5014064;28;20372;-55
2023/12/15 04:18:37;;;;;;;37.42;26.50;;;;;;;;;;5012453;28;20041;-53
2023/12/15 04:21:03;;;;;;;37.10;26.13;;;;;;;;;;5013578;28;20037;-56
2023/12/15 04:23:29;;;;;;;39.13;26.35;;;;;;;;;;5013796;28;20025;-57
2023/12/15 04:25:58;;;;;;;37.33;25.15;;;;;;;;;;5009901;28;20057;-55
2023/12/15 04:28:25;;;;;;;38.30;26.15;;;;;;;;;;5006503;28;20019;-52
2023/12/15 04:30:51;;;;;;;37.55;26.10;;;;;;;;;;5009839;28;20033;-54
2023/12/15 04:33:17;;;;;;;41.88;27.80;;;;;;;;;;5013310;28;20036;-55
2023/12/15 04:35:43;;;;;;;39.00;27.02;;;;;;;;;;5013433;28;20028;-56
2023/12/15 04:38:09;;;;;;;39.78;28.55;;;;;;;;;;5013225;28;20496;-54
2023/12/15 04:40:35;;;;;;;38.97;27.95;;;;;;;;;;5013213;28;20475;-54
2023/12/15 04:43:01;;;;;;;43.83;28.35;;;;;;;;;;5013255;28;20022;-54
2023/12/15 04:45:27;;;;;;;36.78;25.95;;;;;;;;;;5011648;28;20037;-56
2023/12/15 04:47:54;;;;;;;38.30;27.05;;;;;;;;;;5013966;28;20022;-55
2023/12/15 04:50:20;;;;;;;36.33;25.13;;;;;;;;;;5013391;28;20032;-54
2023/12/15 04:52:46;;;;;;;39.35;27.02;;;;;;;;;;5011660;28;20029;-57
2023/12/15 04:55:13;;;;;;;39.60;26.95;;;;;;;;;;5013003;28;20111;-52
2023/12/15 04:57:38;;;;;;;40.00;26.30;;;;;;;;;;5011694;28;20033;-56
2023/12/15 05:00:07;;;;;;;38.58;26.23;;;;;;;;;;5012641;28;20026;-52
2023/12/15 05:02:33;;;;;;;37.30;26.08;;;;;;;;;;5011235;28;20022;-53
2023/12/15 05:04:59;;;;;;;32.83;22.40;;;;;;;;;;5025929;28;20053;-55
2023/12/15 05:07:25;;;;;;;26.20;18.52;;;;;;;;;;5007876;28;20033;-56
2023/12/15 05:09:51;;;;;;;26.80;17.95;;;;;;;;;;5010190;28;20030;-54
2023/12/15 05:12:17;;;;;;;24.45;17.25;;;;;;;;;;5012100;28;20518;-56
2023/12/15 05:14:43;;;;;;;22.67;15.85;;;;;;;;;;5012260;28;20148;-53
2023/12/15 05:17:09;;;;;;;21.52;14.65;;;;;;;;;;5012574;28;20104;-54
2023/12/15 05:19:35;;;;;;;19.05;14.25;;;;;;;;;;5009651;28;20054;-54
2023/12/15 05:22:01;;;;;;;21.85;14.77;;;;;;;;;;5011344;28;20383;-53
2023/12/15 05:24:27;;;;;;;23.65;14.38;;;;;;;;;;5016036;28;20041;-55
2023/12/15 05:26:53;;;;;;;20.23;14.52;;;;;;;;;;5020986;28;20420;-56
2023/12/15 05:29:19;;;;;;;19.83;13.65;;;;;;;;;;5012292;28;20095;-56
2023/12/15 05:31:45;;;;;;;19.75;14.52;;;;;;;;;;5012369;28;20034;-56
2023/12/15 05:34:11;;;;;;;16.25;12.45;;;;;;;;;;5012261;28;20030;-57
2023/12/15 05:36:37;;;;;;;21.17;12.27;;;;;;;;;;5006261;28;20030;-57
2023/12/15 05:39:03;;;;;;;18.17;12.63;;;;;;;;;;5012557;28;20112;-56
2023/12/15 05:41:29;;;;;;;19.20;13.73;;;;;;;;;;5012249;28;20029;-55
2023/12/15 05:43:55;;;;;;;18.77;13.50;;;;;;;;;;5011102;28;20045;-55
2023/12/15 05:46:21;;;;;;;19.90;14.32;;;;;;;;;;5012316;28;20444;-54
2023/12/15 05:48:47;;;;;;;22.50;14.88;;;;;;;;;;5012119;28;20022;-55
2023/12/15 05:51:13;;;;;;;17.63;13.60;;;;;;;;;;5012362;28;20109;-56
2023/12/15 05:53:39;;;;;;;30.95;20.67;;;;;;;;;;5009775;28;20053;-56
2023/12/15 05:56:05;;;;;;;33.60;22.77;;;;;;;;;;5009729;28;20484;-55
2023/12/15 05:58:31;;;;;;;32.35;21.60;;;;;;;;;;5010243;28;20442;-57
2023/12/15 06:00:57;;;;;;;28.38;21.90;;;;;;;;;;4993370;28;20037;-57
2023/12/15 06:03:23;;;;;;;32.50;23.05;;;;;;;;;;5010343;28;20029;-55
2023/12/15 06:05:49;;;;;;;32.13;22.13;;;;;;;;;;5039692;28;20041;-57
2023/12/15 06:08:15;;;;;;;27.77;21.08;;;;;;;;;;5011789;28;20423;-57
2023/12/15 06:10:42;;;;;;;27.58;21.70;;;;;;;;;;5011474;28;20030;-57
2023/12/15 06:13:09;;;;;;;31.67;22.50;;;;;;;;;;5011642;28;20049;-56
2023/12/15 06:15:36;;;;;;;28.48;21.73;;;;;;;;;;5011315;28;20061;-55
2023/12/15 06:18:04;;;;;;;29.23;21.48;;;;;;;;;;5011738;28;20030;-55
2023/12/15 06:20:30;;;;;;;28.63;20.95;;;;;;;;;;5011423;28;20022;-56
2023/12/15 06:22:57;;;;;;;30.42;21.90;;;;;;;;;;5011522;28;20028;-57
2023/12/15 06:25:23;;;;;;;32.30;21.73;;;;;;;;;;5011492;28;20034;-56
2023/12/15 06:27:49;;;;;;;29.15;21.40;;;;;;;;;;5004635;28;20160;-54
2023/12/15 06:30:15;;;;;;;34.57;23.10;;;;;;;;;;5011469;28;20032;-54
2023/12/15 06:32:41;;;;;;;34.73;22.30;;;;;;;;;;5011691;28;20112;-63
2023/12/15 06:35:29;;;;;;;27.25;20.73;;;;;;;;;;5009230;28;20508;-53
2023/12/15 06:37:54;;;;;;;32.87;22.47;;;;;;;;;;5007242;28;20484;-56
2023/12/15 06:40:20;;;;;;;30.60;22.37;;;;;;;;;;5011049;28;20103;-56
2023/12/15 06:42:46;;;;;;;30.10;22.13;;;;;;;;;;5010308;28;20391;-54
2023/12/15 06:45:12;;;;;;;28.43;20.87;;;;;;;;;;5006015;28;20121;-57
2023/12/15 06:47:38;;;;;;;28.83;22.17;;;;;;;;;;5008230;28;20032;-55
2023/12/15 06:50:05;;;;;;;30.13;22.03;;;;;;;;;;4998065;28;20396;-56
2023/12/15 06:52:34;;;;;;;32.20;23.33;;;;;;;;;;5004807;28;20026;-57
2023/12/15 06:55:00;;;;;;;29.95;23.15;;;;;;;;;;5011992;28;20178;-55
2023/12/15 06:57:26;;;;;;;31.60;25.57;;;;;;;;;;5011243;28;20037;-56
2023/12/15 06:59:52;;;;;;;32.42;22.85;;;;;;;;;;5008772;28;20056;-56
2023/12/15 07:02:18;;;;;;;29.58;22.15;;;;;;;;;;5004508;28;20101;-54
2023/12/15 07:04:44;;;;;;;30.10;23.23;;;;;;;;;;5006303;28;20141;-58
2023/12/15 07:07:11;;;;;;;32.80;22.30;;;;;;;;;;5011397;28;20022;-55
2023/12/15 07:09:37;;;;;;;32.22;22.52;;;;;;;;;;5011543;28;20109;-57
2023/12/15 07:15:06;;;;;;;27.25;22.40;;;;;;;;;;4992960;28;20065;-58
2023/12/15 07:17:32;;;;;;;34.83;24.20;;;;;;;;;;5007248;28;20041;-56
2023/12/15 07:19:58;;;;;;;32.70;23.65;;;;;;;;;;5007311;28;20026;-57
2023/12/15 07:22:24;;;;;;;31.17;23.57;;;;;;;;;;5011502;28;20580;-53
2023/12/15 07:24:50;;;;;;;28.73;22.50;;;;;;;;;;5014368;28;20175;-56
2023/12/15 07:27:16;;;;;;;32.10;23.70;;;;;;;;;;5015462;28;20363;-57
2023/12/15 07:29:42;;;;;;;31.80;21.70;;;;;;;;;;5009418;28;20022;-57
2023/12/15 07:32:08;;;;;;;26.75;21.52;;;;;;;;;;5008971;28;20061;-54
2023/12/15 07:34:34;;;;;;;31.77;22.83;;;;;;;;;;5010872;28;20411;-57
2023/12/15 07:37:00;;;;;;;30.47;22.90;;;;;;;;;;5010518;28;20030;-56
2023/12/15 07:39:26;;;;;;;30.97;22.20;;;;;;;;;;5013499;28;20030;-57
2023/12/15 07:41:52;;;;;;;31.63;21.73;;;;;;;;;;5014584;28;20026;-56
2023/12/15 07:44:18;;;;;;;28.95;21.73;;;;;;;;;;5015135;28;20117;-56
2023/12/15 07:46:44;;;;;;;27.40;21.43;;;;;;;;;;5013404;28;20061;-56
2023/12/15 07:49:10;;;;;;;26.57;20.87;;;;;;;;;;5014917;28;20057;-57
2023/12/15 07:51:37;;;;;;;30.38;22.10;;;;;;;;;;5014715;28;20022;-56
2023/12/15 07:54:03;;;;;;;30.40;21.83;;;;;;;;;;5014565;28;20093;-55
2023/12/15 07:56:29;;;;;;;29.55;21.15;;;;;;;;;;5012982;28;20460;-57
2023/12/15 07:58:56;;;;;;;28.50;20.02;;;;;;;;;;5014389;28;20109;-54
2023/12/15 08:01:23;;;;;;;33.33;22.67;;;;;;;;;;5014455;28;20018;-56
2023/12/15 08:03:50;;;;;;;28.98;21.25;;;;;;;;;;5014547;28;20387;-55
2023/12/15 08:06:16;;;;;;;31.92;22.13;;;;;;;;;;5014338;28;20463;-56
2023/12/15 08:08:43;;;;;;;31.40;22.30;;;;;;;;;;5019980;28;20021;-57
2023/12/15 08:11:13;;;;;;;29.60;21.90;;;;;;;;;;5020795;28;20037;-54
2023/12/15 08:13:39;;;;;;;30.77;23.35;;;;;;;;;;5014287;28;20120;-57
2023/12/15 08:16:06;;;;;;;29.83;22.13;;;;;;;;;;5013961;28;20546;-57
2023/12/15 08:18:32;;;;;;;32.22;24.23;;;;;;;;;;5013996;28;20018;-54
2023/12/15 08:20:58;;;;;;;32.25;23.45;;;;;;;;;;5014126;28;20037;-55
2023/12/15 08:23:25;;;;;;;31.67;22.83;;;;;;;;;;5014190;28;20026;-56
2023/12/15 08:25:51;;;;;;;34.97;24.25;;;;;;;;;;5013818;28;20133;-57
2023/12/15 08:28:18;;;;;;;35.83;23.98;;;;;;;;;;5013867;28;20422;-57
2023/12/15 08:30:44;;;;;;;33.40;23.70;;;;;;;;;;5013847;28;20022;-57
2023/12/15 08:33:10;;;;;;;35.88;24.58;;;;;;;;;;5013791;28;20383;-56
2023/12/15 08:35:36;;;;;;;35.05;23.52;;;;;;;;;;5013335;28;20105;-57
2023/12/15 08:38:02;;;;;;;36.28;23.23;;;;;;;;;;5009420;28;20116;-54
2023/12/15 08:43:32;;;;;;;37.65;24.67;;;;;;;;;;5009858;28;20052;-52
2023/12/15 08:45:58;;;;;;;37.08;23.85;;;;;;;;;;5010900;28;20050;-52
2023/12/15 08:48:24;;;;;;;36.78;25.88;;;;;;;;;;5009713;28;20514;-54
2023/12/15 08:50:50;;;;;;;38.00;26.95;;;;;;;;;;5011071;28;20033;-52
2023/12/15 08:53:18;;;;;;;37.95;26.08;;;;;;;;;;5011488;28;20022;-59
2023/12/15 08:55:44;;;;;;;37.53;25.80;;;;;;;;;;5011420;28;20029;-60
2023/12/15 08:58:10;;;;;;;38.47;25.77;;;;;;;;;;5010598;28;20026;-58
2023/12/15 09:00:36;;;;;;;36.28;26.95;;;;;;;;;;5009449;28;20074;-56
2023/12/15 09:03:02;;;;;;;42.75;27.58;;;;;;;;;;5011891;28;20095;-52
2023/12/15 09:05:28;;;;;;;36.92;25.98;;;25.90;1.00;;;;;;5009254;28;20034;-54
2023/12/15 09:07:53;;;;;;;40.95;27.83;;;24.90;99.90;;;;;;5011266;28;20388;-59
2023/12/15 09:10:20;;;;;;;38.40;26.08;;;24.90;99.90;;;;;;5015076;28;20030;-55
2023/12/15 09:12:46;;;;;;;43.83;27.40;;;24.90;99.90;;;;;;5012046;28;20032;-53
2023/12/15 09:15:12;;;;;;;41.42;27.67;;;24.90;99.90;;;;;;5010759;28;20029;-53
2023/12/15 09:17:39;;;;;;;41.17;29.63;;;25.00;99.90;;;;;;5007334;28;20434;-48
2023/12/15 09:20:05;;;;;;;36.63;27.17;;;25.00;99.90;;;;;;5010299;28;20030;-56
2023/12/15 09:22:31;;;;;;;39.55;26.05;;;25.00;99.90;;;;;;5009555;28;20092;-55
2023/12/15 09:24:56;;;;;;;37.78;28.00;;;25.00;99.90;;;;;;5009355;28;20506;-59
2023/12/15 09:27:22;;;;;;;36.33;25.50;;;25.00;99.90;;;;;;5009261;28;20034;-66
2023/12/15 09:29:48;;;;;;;35.85;24.98;;;25.10;99.90;;;;;;5010953;28;20092;-58
2023/12/15 09:32:13;;;;;;;35.67;25.30;;;25.10;99.90;;;;;;5009411;28;20025;-59
2023/12/15 09:34:39;;;;;;;32.40;24.65;;;25.10;99.90;;;;;;5010103;28;20034;-58
2023/12/15 09:37:05;;;;;;;34.50;25.58;;;25.10;99.90;;;;;;5009253;28;20526;-53
2023/12/15 09:39:31;;;;;;;36.55;25.77;;;25.20;99.90;;;;;;5010860;28;20034;-59
2023/12/15 09:41:56;;;;;;;31.85;24.25;;;25.10;99.90;;;;;;5009656;28;20480;-59
2023/12/15 09:44:22;;;;;;;35.17;23.50;;;25.10;99.90;;;;;;5011531;28;20042;-59
2023/12/15 09:46:48;;;;;;;31.33;23.02;;;25.10;99.90;;;;;;5008236;28;20049;-49
2023/12/15 09:49:18;;;;;;;45.83;29.45;;;25.20;99.90;;;;;;5013993;28;20512;-56
2023/12/15 09:51:50;;;;;;;36.72;23.38;;;25.20;99.90;;;;;;5008995;28;20030;-58
2023/12/15 09:54:16;;;;;;;35.40;23.80;;;25.20;99.90;;;;;;5014028;28;20448;-59
2023/12/15 09:56:42;;;;;;;40.15;23.45;;;25.20;99.90;;;;;;5010990;28;20101;-52
2023/12/15 09:59:08;;;;;;;33.03;21.70;;;25.20;99.90;;;;;;5020263;28;20067;-51
2023/12/15 10:01:33;;;;;;;33.05;22.65;;;25.20;99.90;;;;;;5041633;28;20058;-61
2023/12/15 10:03:59;;;;;;;37.30;22.80;;;25.30;99.90;;;;;;5008849;28;20084;-62
2023/12/15 10:06:25;;;;;;;30.27;22.20;;;25.30;99.90;;;;;;5007083;28;20084;-49
2023/12/15 10:08:51;;;;;;;30.85;22.65;;;25.30;99.90;;;;;;5011103;28;20036;-51
2023/12/15 10:11:17;;;;;;;29.77;21.27;;;25.40;99.90;;;;;;5009063;28;20497;-51
2023/12/15 10:13:43;;;;;;;30.40;20.13;;;25.40;99.90;;;;;;5010691;28;20022;-59
2023/12/15 10:16:10;;;;;;;28.92;20.50;;;25.40;99.90;;;;;;5009421;28;20044;-60
2023/12/15 10:18:40;;;;;;;33.20;20.48;;;25.40;99.90;;;;;;5008963;28;20206;-47
2023/12/15 10:21:06;;;;;;;33.13;20.63;;;25.40;99.90;;;;;;5010521;28;20106;-56
2023/12/15 10:23:32;;;;;;;27.10;19.50;;;25.40;99.90;;;;;;5011074;28;20117;-56
2023/12/15 10:25:59;;;;;;;27.67;19.25;;;25.40;99.90;;;;;;5008898;28;20040;-64
2023/12/15 10:28:24;;;;;;;27.35;19.77;;;25.40;99.90;;;;;;5039352;28;20025;-63
2023/12/15 10:30:51;;;;;;;24.77;18.52;;;25.50;99.90;;;;;;5010041;28;20506;-62
2023/12/15 10:33:18;;;;;;;25.17;18.73;;;25.50;99.90;;;;;;5007828;28;20030;-59
2023/12/15 10:35:47;;;;;;;28.60;19.95;;;25.50;99.90;;;;;;5007173;28;20022;-59
2023/12/15 10:38:14;;;;;;;26.15;20.65;;;25.40;99.90;;;;;;5007754;28;20022;-53
2023/12/15 10:40:42;;;;;;;27.17;19.27;;;25.50;99.90;;;;;;5007381;28;20510;-53
2023/12/15 10:43:12;;;;;;;24.45;19.17;;;25.50;99.90;;;;;;5005315;28;20476;-52
2023/12/15 10:45:38;;;;;;;25.05;18.52;;;25.60;99.90;;;;;;5008316;28;20116;-53
2023/12/15 10:48:03;;;;;;;24.15;18.05;;;25.50;99.90;;;;;;5007824;28;20101;-53
2023/12/15 10:50:30;;;;;;;23.30;18.48;;;25.50;99.90;;;;;;5008311;28;20030;-50
2023/12/15 10:52:57;;;;;;;24.60;18.17;;;25.60;99.90;;;;;;5009174;28;20021;-48
2023/12/15 10:55:25;;;;;;;28.38;18.67;;;25.60;99.90;;;;;;5011105;28;20102;-48
2023/12/15 10:57:51;;;;;;;25.13;17.13;;;25.60;99.90;;;;;;5011608;28;20093;-53
2023/12/15 11:00:17;;;;;;;20.70;17.48;;;25.50;99.90;;;;;;5013569;28;20053;-57
2023/12/15 11:02:47;;;;;;;25.67;18.33;;;25.60;99.90;;;;;;5010630;28;20358;-59
2023/12/15 11:05:15;;;;;;;21.58;17.67;;;25.60;99.90;;;;;;5009970;28;20428;-55
2023/12/15 11:07:41;;;;;;;24.55;19.27;;;25.60;99.90;;;;;;5013590;28;20080;-56
2023/12/15 11:10:09;;;;;;;21.52;17.58;;;25.60;99.90;;;;;;5009207;28;20454;-52
2023/12/15 11:12:38;;;;;;;23.33;18.45;;;25.60;99.90;;;;;;5010176;28;20052;-53
2023/12/15 11:15:08;;;;;;;21.50;16.58;;;25.70;99.90;;;;;;5010676;28;20105;-56
2023/12/15 11:17:43;;;;;;;23.55;16.65;;;25.70;99.90;;;;;;5013096;28;20480;-54
2023/12/15 11:20:20;;;;;;;21.88;16.80;;;25.70;99.90;;;;;;5013751;28;20124;-53
2023/12/15 11:23:07;;;;;;;21.67;15.63;;;25.70;99.90;;;;;;5007661;28;20096;-55
2023/12/15 11:25:34;;;;;;;18.08;14.75;;;25.70;99.90;;;;;;5014166;28;20046;-55
2023/12/15 11:28:05;;;;;;;23.15;13.98;;;25.70;99.90;;;;;;5008496;28;20026;-59
2023/12/15 11:30:34;;;;;;;18.27;13.23;;;25.70;99.90;;;;;;5014136;28;20475;-52
2023/12/15 11:33:00;;;;;;;20.88;13.32;;;25.70;99.90;;;;;;5011599;28;20030;-65
2023/12/15 11:35:32;;;;;;;20.30;12.27;;;25.70;99.90;;;;;;5014415;28;20094;-48
2023/12/15 11:37:58;;;;;;;15.48;12.07;;;25.70;99.90;;;;;;5013082;28;20030;-60
2023/12/15 11:40:29;;;;;;;22.83;13.50;;;25.80;99.90;;;;;;5013301;28;20030;-60
2023/12/15 11:42:56;;;;;;;17.60;11.70;;;25.80;99.90;;;;;;5012898;28;20025;-57
2023/12/15 11:45:26;;;;;;;18.15;13.43;;;25.80;99.90;;;;;;5013609;28;20034;-67
2023/12/15 11:47:52;;;;;;;16.55;12.52;;;;;;;;;;5014247;28;20079;-63
2023/12/15 11:50:19;;;;;;;18.35;13.55;;;;;;;;;;5017568;28;20052;-63
2023/12/15 11:52:45;;;;;;;17.60;12.50;;;;;;;;;;5014285;28;20030;-63
2023/12/15 11:55:12;;;;;;;18.33;11.80;;;;;;;;;;5027349;28;20395;-63
2023/12/15 11:57:38;;;;;;;18.48;12.63;;;;;;;;;;5013644;28;20029;-62
2023/12/15 12:00:04;;;;;;;19.52;14.43;;;;;;;;;;5014262;28;20030;-62
2023/12/15 12:02:30;;;;;;;18.35;14.27;;;;;;;;;;5014028;28;20097;-63
2023/12/15 12:04:56;;;;;;;20.65;14.43;;;;;;;;;;5014045;28;20049;-63
2023/12/15 12:07:22;;;;;;;21.60;14.48;;;;;;;;;;5013851;28;20542;-63
2023/12/15 12:09:49;;;;;;;20.95;15.65;;;;;;;;;;5013324;28;20112;-63
2023/12/15 12:12:15;;;;;;;20.88;16.13;;;;;;;;;;5014018;28;20033;-62
2023/12/15 12:14:42;;;;;;;21.95;15.98;;;;;;;;;;5014041;28;20391;-62
2023/12/15 12:17:10;;;;;;;30.23;20.02;;;;;;;;;;5012459;28;20116;-62
2023/12/15 12:19:40;;;;;;;23.15;17.77;;;;;;;;;;5013667;28;20156;-62
2023/12/15 12:22:09;;;;;;;22.40;17.30;;;;;;;;;;5013771;28;20026;-62
2023/12/15 12:24:35;;;;;;;24.52;17.85;;;;;;;;;;5012253;28;20131;-62
2023/12/15 12:27:01;;;;;;;24.75;19.15;;;;;;;;;;5012485;28;20104;-62
2023/12/15 12:29:31;;;;;;;31.30;20.92;;;;;;;;;;5013485;28;20435;-63
2023/12/15 12:31:57;;;;;;;28.20;20.42;;;;;;;;;;5013441;28;20549;-63
2023/12/15 12:34:23;;;;;;;24.55;20.65;;;;;;;;;;5013487;28;20030;-63
2023/12/15 12:36:49;;;;;;;27.58;21.67;;;;;;;;;;5013364;28;20133;-63
2023/12/15 12:39:15;;;;;;;25.20;21.30;;;;;;;;;;5013297;28;20546;-63
2023/12/15 12:41:41;;;;;;;29.90;20.95;;;;;;;;;;5013643;28;20025;-63
2023/12/15 12:44:07;;;;;;;27.10;21.45;;;;;;;;;;5011859;28;20410;-63
2023/12/15 12:46:33;;;;;;;27.33;20.73;;;;;;;;;;5012041;28;20466;-63
2023/12/15 12:48:59;;;;;;;27.90;21.52;;;;;;;;;;5013621;28;21712;-63
2023/12/15 12:51:27;;;;;;;31.58;22.25;;;;;;;;;;5013067;28;20064;-63
2023/12/15 12:53:53;;;;;;;25.15;20.80;;;;;;;;;;5015321;28;20018;-63
2023/12/15 12:56:21;;;;;;;27.30;20.75;;;;;;;;;;5023357;28;20381;-63
2023/12/15 12:58:47;;;;;;;32.28;21.70;;;;;;;;;;5011400;28;20366;-63
2023/12/15 13:01:13;;;;;;;26.17;20.33;;;;;;;;;;5013224;28;20030;-63
2023/12/15 13:03:39;;;;;;;29.77;20.42;;;;;;;;;;5013088;28;20018;-63
2023/12/15 13:06:23;;;;;;;26.38;22.25;;;;;;;;;;5012761;28;20141;-63
2023/12/15 13:08:49;;;;;;;28.27;20.63;;;;;;;;;;5007549;28;20030;-63
2023/12/15 13:11:15;;;;;;;28.90;20.42;;;;;;;;;;5012782;28;20459;-63
2023/12/15 13:13:41;;;;;;;28.25;18.95;;;;;;;;;;5012660;28;20044;-63
2023/12/15 13:16:08;;;;;;;26.05;20.13;;;;;;;;;;5012835;28;20132;-63
2023/12/15 13:18:35;;;;;;;27.02;18.65;;;;;;;;;;5007613;28;20034;-63
2023/12/15 13:21:01;;;;;;;28.98;18.67;;;;;;;;;;5010575;28;20014;-63
2023/12/15 13:23:27;;;;;;;28.13;19.67;;;;;;;;;;5012697;28;20028;-63
2023/12/15 13:25:53;;;;;;;26.10;19.35;;;;;;;;;;5012622;28;20443;-63
2023/12/15 13:28:19;;;;;;;24.15;18.90;;;;;;;;;;5011158;28;20022;-63
2023/12/15 13:30:46;;;;;;;26.23;19.15;;;;;;;;;;5012406;28;20028;-63
2023/12/15 13:33:12;;;;;;;27.73;19.20;;;;;;;;;;5012517;28;20068;-63
2023/12/15 13:35:39;;;;;;;26.23;18.45;;;;;;;;;;5012411;28;20025;-62
2023/12/15 13:38:05;;;;;;;23.13;18.00;;;;;;;;;;5012340;28;20018;-63
2023/12/15 13:40:31;;;;;;;24.90;18.83;;;;;;;;;;5012192;28;20551;-62
2023/12/15 13:42:57;;;;;;;23.98;18.20;;;;;;;;;;5012233;28;20022;-63
2023/12/15 13:45:23;;;;;;;21.77;17.60;;;;;;;;;;5012576;28;20110;-62
2023/12/15 13:47:49;;;;;;;19.88;16.23;;;;;;;;;;5012270;28;20472;-63
2023/12/15 13:50:15;;;;;;;23.40;16.85;;;;;;;;;;5010509;28;20129;-60
2023/12/15 13:52:42;;;;;;;23.20;15.85;;;;;;;;;;5010481;28;20045;-62
2023/12/15 13:55:08;;;;;;;19.92;15.70;;;;;;;;;;5024247;28;20025;-63